world map with BKK marked

BKK - Airport

This information may not be accurate or current and is not valid for navigation or flight planning. No warranty of fitness for any purpose is made or implied.

flag of Thailand

Donate via PayPal

Additional information is available on the NEW Great Circle Mapper

Location
City:  Bangkok, Thailand
Name:Suvarnabhumi Bangkok International Airport
ICAO / IATA:VTBS / BKK

Details
Type:Airport (Aerodrome, Airfield)
Use:Public/Civil
Latitude:13°40'52"N (13.681108)
Longitude:100°44'50"E (100.747283)
Datum:WGS 1984
Elevation:5 ft (2 m)
Runways:2
Longest:13123 × 197 ft (4000 × 60 m)

Time
Timezone:UTC+7
Local Time:

Weather
METAR:VTBS  171100Z 22012KT 190V260 9999 FEW020 SCT120 BKN300 29/21 Q1005 NOSIG
TAF:VTBS  (expired)

Related Locations
Nearby:
Farthest:SPLP: 12258 mi / 19727 km
Lima [Las Palmas AFB], PE

Find:

   beyond  
but within

Other Information
Maps:
Links:
Sources:

  


 


Great Circle Mapper   Great Circle Mapper
Great Circle Mapper FAQ   Great Circle Mapper FAQ
  Karl's Home Page
KLSē   KLSē Home
   GC on Facebook
Airlines of the World   Airlines of the World
Donate via PayPal


Copyright © 2004-2014, Karl L. Swartz. All rights reserved.
All trademarks mentioned herein belong to their respective owners.

Please see credits for attribution and copyright information.

Karl Swartz <karl@kls2.com>
  Powered by FreeBSD
Valid HTML 4.01!
Labeled with ICRA
hCard Microformat
Geo Microformat